San Francisco, California
Traffic Map
Current Weather Conditions
San Francisco, California
Few Clouds
Few Clouds
63°
Feels Like: 63°
Wind Chill: 63° Ceiling: Unl
Heat Index: 63° Visibility: 10mi
Dew Point: 56° Wind: 10mph
Humidity: 78% Direction: 260° (W)
Pressure: 29.94in Gusts: 0mph
Raw Report DataKSFO 030756Z 26009KT 10SM FEW012 17/13 A2994 RMK AO2 SLP137 T01720133 402170167
Traffic Incident Summary
Active as of:
Severity:
Category:
InformationThere was an issue retrieving the traffic information for this location. Please try a different location or try again shortly.
Advertisements
Track Severe Weather on mobile